Agua Linda, Arizona
Current Conditions -  °F | °C
As of 6:54 AM on Thursday 30 Oct 2014 (Local Time) from KOLS Reporting Station
Clear Clear  
Wind Chill: 48°   Ceiling: Unl
Heat Index: 48°   Visibility: 10mi
Dew Point: 38°   Wind: 3mph
Humidity: 68%   Direction: 140°SE
Pressure: 30.15"   Gusts: NA
Location:  31.6134°N, 110.959°W
Report Text: KOLS 301354Z AUTO 14003KT 10SM CLR 09/03 A3015 RMK AO2 SLP172 T00890033
Loading
Personal Weather Stations






























Interactive Weather Map
Tropical Storm Tracking
New forecast layout! Learn more

10-Day Weather Forecast

Advertisements
Track Severe Weather on mobile